Time;durP1;ratioP1;P1;durP2;ratioP2;P2;SDS_P1;SDS_P2;PMS_P1;PMS_P2;Temp;Humidity;BMP_temperature;BMP_pressure;BME280_temperature;BME280_humidity;BME280_pressure;Samples;Min_cycle;Max_cycle;Signal;HPM_P1;HPM_P2
2022/11/28 00:01:42;;;;;;;4.63;1.77;;;4.80;99.90;;;4.55;100.00;100342.97;5015350;28;20319;-75
2022/11/28 00:04:11;;;;;;;6.35;2.33;;;4.70;99.90;;;4.35;100.00;100327.50;4994034;28;20240;-77
2022/11/28 00:06:44;;;;;;;5.75;2.10;;;4.50;99.90;;;4.31;100.00;100337.84;4995140;28;20224;-76
2022/11/28 00:09:14;;;;;;;6.13;2.10;;;4.50;99.90;;;4.38;100.00;100332.84;4981439;28;20328;-77
2022/11/28 00:11:43;;;;;;;7.03;2.47;;;4.50;99.90;;;4.42;100.00;100342.56;4993258;28;20424;-79
2022/11/28 00:14:10;;;;;;;6.03;2.13;;;4.50;99.90;;;4.32;100.00;100329.16;4984676;28;20311;-77
2022/11/28 00:16:37;;;;;;;7.38;2.53;;;4.60;99.90;;;4.30;100.00;100320.34;4984837;28;20599;-79
2022/11/28 00:19:05;;;;;;;8.77;3.35;;;4.50;99.90;;;4.31;100.00;100315.16;4992445;28;20247;-76
2022/11/28 00:21:34;;;;;;;7.05;2.45;;;4.40;99.90;;;4.30;100.00;100302.03;4986621;28;20266;-77
2022/11/28 00:24:01;;;;;;;8.45;2.90;;;4.40;99.90;;;4.29;100.00;100303.75;4997143;28;20286;-84
2022/11/28 00:26:36;;;;;;;7.10;2.53;;;4.40;99.90;;;4.31;100.00;100303.81;4998922;28;20220;-77
2022/11/28 00:29:05;;;;;;;6.13;2.17;;;4.50;99.90;;;4.30;100.00;100296.78;4998564;28;20323;-76
2022/11/28 00:31:40;;;;;;;9.30;3.55;;;4.40;99.90;;;4.32;100.00;100298.63;4998386;28;20331;-84
2022/11/28 00:34:11;;;;;;;10.63;3.45;;;4.50;99.90;;;4.24;100.00;100288.75;4981096;28;20227;-77
2022/11/28 00:36:38;;;;;;;8.88;2.83;;;4.40;99.90;;;4.24;100.00;100291.38;4998903;28;20752;-78
2022/11/28 00:39:05;;;;;;;6.93;2.22;;;4.40;99.90;;;4.24;100.00;100286.13;5002511;28;20224;-77
2022/11/28 00:41:34;;;;;;;7.30;2.40;;;4.40;99.90;;;4.22;100.00;100285.19;4998142;28;20235;-83
2022/11/28 00:44:01;;;;;;;6.00;2.13;;;4.70;99.90;;;4.28;100.00;100282.75;4999287;28;20256;-79
2022/11/28 00:46:28;;;;;;;7.47;2.38;;;4.40;99.90;;;4.28;100.00;100281.03;4999811;28;20288;-77
2022/11/28 00:48:57;;;;;;;6.70;2.35;;;4.40;99.90;;;4.24;100.00;100281.78;5000086;28;20311;-85
2022/11/28 00:51:28;;;;;;;7.32;2.50;;;4.40;99.90;;;4.22;100.00;100272.09;5000415;28;20315;-86
2022/11/28 00:53:59;;;;;;;7.80;2.72;;;4.40;99.90;;;4.25;100.00;100275.72;5004549;28;20258;-76
2022/11/28 00:56:34;;;;;;;7.28;2.47;;;4.30;99.90;;;4.29;100.00;100271.47;4997313;28;20238;-76
2022/11/28 00:59:01;;;;;;;6.30;2.28;;;4.40;99.90;;;4.34;100.00;100267.25;4999743;28;20320;-79
2022/11/28 01:01:38;;;;;;;7.13;2.42;;;4.40;99.90;;;4.28;100.00;100256.59;4993973;28;20723;-83
2022/11/28 01:04:08;;;;;;;6.50;2.38;;;4.40;99.90;;;4.30;100.00;100268.88;4994468;28;20232;-77
2022/11/28 01:06:39;;;;;;;6.57;2.33;;;4.40;99.90;;;4.28;100.00;100262.72;4998105;28;20315;-77
2022/11/28 01:09:19;;;;;;;5.97;2.05;;;4.40;99.90;;;4.28;100.00;100264.44;5017354;28;20317;-79
2022/11/28 01:11:49;;;;;;;9.70;3.20;;;4.40;99.90;;;4.31;100.00;100259.31;5009001;28;20323;-78
2022/11/28 01:14:19;;;;;;;5.35;1.92;;;4.40;99.90;;;4.37;100.00;100267.34;5011318;28;20252;-76
2022/11/28 01:16:47;;;;;;;4.38;1.60;;;4.50;99.90;;;4.37;100.00;100257.75;5010301;28;20251;-76
2022/11/28 01:19:14;;;;;;;4.38;1.58;;;4.50;99.90;;;4.39;100.00;100255.19;5007472;28;20258;-76
2022/11/28 01:21:42;;;;;;;4.13;1.55;;;4.50;99.90;;;4.38;100.00;100253.41;5002966;28;20235;-77
2022/11/28 01:24:10;;;;;;;4.40;1.65;;;4.50;99.90;;;4.39;100.00;100258.69;5017378;28;20766;-76
2022/11/28 01:26:39;;;;;;;7.35;2.58;;;4.50;99.90;;;4.38;100.00;100256.91;5011680;28;20715;-78
2022/11/28 01:29:09;;;;;;;4.22;1.50;;;4.60;99.90;;;4.41;100.00;100253.50;5005795;28;20310;-79
2022/11/28 01:31:37;;;;;;;6.05;2.03;;;4.50;99.90;;;4.41;100.00;100243.94;4988900;28;20310;-77
2022/11/28 01:34:04;;;;;;;4.38;1.65;;;4.50;99.90;;;4.42;100.00;100230.00;5013355;28;20373;-76
2022/11/28 01:36:31;;;;;;;6.53;2.28;;;4.50;99.90;;;4.42;100.00;100232.63;5007458;28;20251;-76
2022/11/28 01:38:58;;;;;;;6.68;2.10;;;4.50;99.90;;;4.37;100.00;100225.47;4986085;28;20330;-76
2022/11/28 01:41:26;;;;;;;6.13;2.13;;;4.50;99.90;;;4.41;100.00;100220.38;4998883;28;20300;-75
2022/11/28 01:44:28;;;;;;;5.65;1.90;;;4.50;99.90;;;4.43;100.00;100212.56;4997788;28;20719;-76
2022/11/28 01:46:55;;;;;;;5.68;1.80;;;4.50;99.90;;;4.37;100.00;100201.91;4995175;28;20234;-75
2022/11/28 01:49:36;;;;;;;6.03;2.13;;;4.50;99.90;;;4.34;100.00;100199.19;4997575;28;20243;-75
2022/11/28 01:52:11;;;;;;;6.28;2.10;;;4.60;99.90;;;4.37;100.00;100199.28;4986263;28;20226;-75
2022/11/28 01:54:41;;;;;;;7.35;2.58;;;4.60;99.90;;;4.33;100.00;100198.31;5004908;28;20225;-75
2022/11/28 01:57:16;;;;;;;7.93;2.72;;;4.40;99.90;;;4.33;100.00;100198.31;4987224;28;20236;-75
2022/11/28 02:00:03;;;;;;;4.82;1.70;;;4.50;99.90;;;4.27;100.00;100187.66;4987795;28;20230;-75
2022/11/28 02:02:53;;;;;;;6.18;2.10;;;4.40;99.90;;;4.23;100.00;100182.28;5001896;28;20338;-75
2022/11/28 02:05:22;;;;;;;5.53;2.35;;;4.40;99.90;;;4.24;100.00;100181.44;4990481;28;20255;-75
2022/11/28 02:07:50;;;;;;;6.97;2.42;;;4.40;99.90;;;4.24;100.00;100177.09;4986098;28;20262;-76
2022/11/28 02:10:26;;;;;;;7.90;2.63;;;4.40;99.90;;;4.18;100.00;100162.09;4981432;28;20240;-75
2022/11/28 02:13:10;;;;;;;6.13;2.17;;;4.30;99.90;;;4.13;100.00;100173.25;4999927;28;20778;-75
2022/11/28 02:16:03;;;;;;;4.60;1.77;;;4.30;99.90;;;4.12;100.00;100166.25;4998433;28;20287;-74
2022/11/28 02:19:04;;;;;;;4.97;1.73;;;4.30;99.90;;;4.11;100.00;100161.84;4977406;28;20220;-75
2022/11/28 02:22:00;;;;;;;11.35;3.83;;;4.20;99.90;;;4.09;100.00;100158.31;4988985;28;20261;-75
2022/11/28 02:25:19;;;;;;;7.72;2.65;;;4.20;99.90;;;4.08;100.00;100156.53;4987684;28;20303;-75
2022/11/28 02:28:32;;;;;;;4.35;1.60;;;4.20;99.90;;;4.03;100.00;100153.78;4988518;28;20251;-75
2022/11/28 02:31:38;;;;;;;5.22;1.98;;;4.20;99.90;;;4.02;100.00;100152.00;4995681;28;20322;-75
2022/11/28 02:34:22;;;;;;;5.97;2.10;;;4.20;99.90;;;4.01;100.00;100155.44;5001029;28;20242;-74
2022/11/28 02:36:56;;;;;;;9.05;2.97;;;4.20;99.90;;;4.01;100.00;100146.72;4984200;28;20622;-74
2022/11/28 02:40:02;;;;;;;7.90;2.63;;;4.10;99.90;;;3.98;100.00;100147.50;4984327;28;20303;-75
2022/11/28 02:42:43;;;;;;;6.45;2.17;;;4.10;99.90;;;3.92;100.00;100144.72;4976068;28;20282;-74
2022/11/28 02:45:22;;;;;;;8.13;2.75;;;4.10;99.90;;;3.86;100.00;100137.53;5000402;28;20252;-74
2022/11/28 02:48:06;;;;;;;6.85;2.28;;;4.10;99.90;;;3.87;100.00;100148.88;4999765;28;20258;-74
2022/11/28 02:51:19;;;;;;;6.70;2.13;;;4.00;99.90;;;3.87;100.00;100138.41;4980300;28;20275;-74
2022/11/28 02:53:48;;;;;;;6.15;2.13;;;4.00;99.90;;;3.86;100.00;100141.88;4993875;28;20237;-74
2022/11/28 02:56:16;;;;;;;7.50;2.55;;;4.00;99.90;;;3.83;100.00;100129.59;4987137;28;20307;-74
2022/11/28 02:58:43;;;;;;;7.38;2.47;;;4.00;99.90;;;3.82;100.00;100135.66;4970131;28;20338;-74
2022/11/28 03:01:35;;;;;;;5.65;1.88;;;4.00;99.90;;;3.83;100.00;100132.19;5003509;28;20235;-74
2022/11/28 03:04:20;;;;;;;6.60;2.28;;;4.00;99.90;;;3.83;100.00;100118.22;4994192;28;20233;-74
2022/11/28 03:07:31;;;;;;;5.78;2.10;;;4.00;99.90;;;3.81;100.00;100120.81;4987528;28;20743;-74
2022/11/28 03:10:23;;;;;;;5.93;2.13;;;4.00;99.90;;;3.70;100.00;100109.13;5002485;28;20255;-74
2022/11/28 03:12:59;;;;;;;5.38;1.95;;;3.90;99.90;;;3.66;100.00;100107.25;4998237;28;20326;-74
2022/11/28 03:15:54;;;;;;;5.35;2.17;;;3.90;99.90;;;3.70;100.00;100116.06;4999234;28;20315;-74
2022/11/28 03:18:47;;;;;;;7.88;2.72;;;3.80;99.90;;;3.74;100.00;100120.56;4983090;28;20228;-74
2022/11/28 03:21:54;;;;;;;7.72;2.75;;;3.80;99.90;;;3.79;100.00;100108.50;4987047;28;20231;-74
2022/11/28 03:24:46;;;;;;;4.30;1.65;;;3.90;99.90;;;3.70;100.00;100097.78;4998821;28;20262;-74
2022/11/28 03:27:22;;;;;;;6.35;2.20;;;3.80;99.90;;;3.60;100.00;100093.97;4996927;28;20311;-75
2022/11/28 03:29:54;;;;;;;5.00;1.80;;;3.80;99.90;;;3.64;100.00;100093.25;5001268;28;20294;-74
2022/11/28 03:32:30;;;;;;;5.03;1.83;;;3.80;99.90;;;3.67;100.00;100097.69;4986839;28;20764;-74
2022/11/28 03:35:05;;;;;;;6.30;2.42;;;3.80;99.90;;;3.63;100.00;100081.00;4982247;28;20320;-74
2022/11/28 03:38:09;;;;;;;4.75;1.80;;;3.90;99.90;;;3.60;100.00;100085.25;4994345;28;20231;-73
2022/11/28 03:40:43;;;;;;;5.30;1.92;;;3.70;99.90;;;3.55;100.00;100082.50;4962091;28;20281;-74
2022/11/28 03:43:18;;;;;;;6.95;2.58;;;3.70;99.90;;;3.43;100.00;100071.66;4986846;28;20238;-74
2022/11/28 03:45:51;;;;;;;4.20;1.48;;;3.60;99.90;;;3.47;100.00;100076.13;4990287;28;20222;-74
2022/11/28 03:48:29;;;;;;;6.35;2.30;;;3.60;99.90;;;3.50;100.00;100084.06;4988521;28;20288;-73
2022/11/28 03:51:06;;;;;;;5.25;1.95;;;3.60;99.90;;;3.52;100.00;100082.41;4974893;28;20235;-74
2022/11/28 03:53:52;;;;;;;4.40;1.70;;;3.60;99.90;;;3.51;100.00;100071.06;4987939;28;20274;-74
2022/11/28 03:56:29;;;;;;;3.13;1.23;;;3.60;99.90;;;3.48;100.00;100067.47;4976627;28;20260;-74
2022/11/28 03:59:12;;;;;;;6.75;2.38;;;3.60;99.90;;;3.50;100.00;100079.72;4982644;28;20698;-74
2022/11/28 04:02:05;;;;;;;6.57;2.38;;;3.60;99.90;;;3.32;100.00;100062.59;4972610;28;20319;-74
2022/11/28 04:04:40;;;;;;;6.20;2.17;;;3.50;99.90;;;3.32;100.00;100062.59;4986244;28;20659;-74
2022/11/28 04:07:28;;;;;;;4.97;1.85;;;3.40;99.90;;;3.31;100.00;100066.03;5015130;28;20231;-74
2022/11/28 04:10:02;;;;;;;5.63;2.00;;;3.40;99.90;;;3.35;100.00;100073.13;5005809;28;20226;-73
2022/11/28 04:12:39;;;;;;;6.28;2.30;;;3.40;99.90;;;3.27;100.00;100079.84;4990355;28;20255;-74
2022/11/28 04:15:16;;;;;;;5.85;2.08;;;3.40;99.90;;;3.31;100.00;100087.84;5018495;28;20310;-74
2022/11/28 04:18:09;;;;;;;7.20;2.55;;;3.40;99.90;;;3.35;100.00;100068.78;4981916;28;20255;-73
2022/11/28 04:20:54;;;;;;;7.82;2.72;;;3.50;99.90;;;3.42;100.00;100078.59;4993644;28;20247;-74
2022/11/28 04:23:23;;;;;;;7.32;2.58;;;3.50;99.90;;;3.38;100.00;100068.91;4994502;28;20786;-73
2022/11/28 04:26:17;;;;;;;5.40;1.92;;;3.50;99.90;;;3.36;100.00;100054.88;4990416;28;20310;-74
2022/11/28 04:28:47;;;;;;;8.95;2.88;;;3.50;99.90;;;3.37;100.00;100051.44;4985221;28;20654;-73
2022/11/28 04:31:16;;;;;;;7.35;2.65;;;3.60;99.90;;;3.36;100.00;100054.88;4990576;28;20242;-74
2022/11/28 04:33:48;;;;;;;6.15;2.42;;;3.50;99.90;;;3.40;100.00;100055.88;5006758;28;20381;-74
2022/11/28 04:36:19;;;;;;;5.30;1.85;;;3.50;99.90;;;3.34;100.00;100053.94;4989670;28;20312;-74
2022/11/28 04:38:54;;;;;;;6.53;2.35;;;3.60;99.90;;;3.33;100.00;100044.34;4996086;28;20254;-74
2022/11/28 04:41:40;;;;;;;5.90;2.15;;;3.50;99.90;;;3.37;100.00;100048.81;5004603;28;20255;-74
2022/11/28 04:44:19;;;;;;;5.88;2.45;;;3.50;99.90;;;3.35;100.00;100054.84;5006297;28;20229;-74
2022/11/28 04:46:52;;;;;;;5.75;1.98;;;3.60;99.90;;;3.29;100.00;100050.31;4990913;28;20243;-74
2022/11/28 04:49:19;;;;;;;5.30;2.10;;;3.50;99.90;;;3.24;100.00;100046.66;4985440;28;20228;-74
2022/11/28 04:52:09;;;;;;;5.22;1.88;;;3.60;99.90;;;3.27;100.00;100045.88;5000238;28;20239;-74
2022/11/28 04:55:12;;;;;;;5.80;2.00;;;3.40;99.90;;;3.25;100.00;100037.97;5013467;28;20255;-74
2022/11/28 04:57:45;;;;;;;6.28;2.10;;;3.40;99.90;;;3.22;100.00;100038.78;4990750;28;20247;-74
2022/11/28 05:00:16;;;;;;;5.18;1.90;;;3.40;99.90;;;3.24;100.00;100037.94;4977875;28;20251;-74
2022/11/28 05:02:48;;;;;;;6.43;2.30;;;3.40;99.90;;;3.29;100.00;100036.34;5010254;28;20254;-74
2022/11/28 05:05:24;;;;;;;3.28;1.30;;;3.40;99.90;;;3.25;100.00;100034.47;4995931;28;20315;-74
2022/11/28 05:07:52;;;;;;;5.88;2.00;;;3.40;99.90;;;3.15;100.00;100038.53;5009802;28;20235;-73
2022/11/28 05:10:19;;;;;;;10.30;3.42;;;3.30;99.90;;;3.12;100.00;100031.47;4997790;28;20231;-74
2022/11/28 05:12:47;;;;;;;6.57;2.17;;;3.30;99.90;;;3.15;100.00;100026.34;4988426;28;20320;-74
2022/11/28 05:15:17;;;;;;;4.90;1.70;;;3.20;99.90;;;3.14;100.00;100029.81;5008715;28;20227;-75
2022/11/28 05:17:45;;;;;;;5.78;2.05;;;3.30;99.90;;;3.16;100.00;100022.00;5015309;28;20239;-74
2022/11/28 05:20:13;;;;;;;7.47;2.53;;;3.30;99.90;;;3.20;100.00;100027.38;4999179;28;20227;-74
2022/11/28 05:22:40;;;;;;;5.63;1.90;;;3.30;99.90;;;3.19;100.00;100020.38;4999432;28;20262;-74
2022/11/28 05:25:07;;;;;;;6.93;2.40;;;3.40;99.90;;;3.12;100.00;100017.53;5001918;28;20263;-74
2022/11/28 05:27:35;;;;;;;6.47;2.20;;;3.30;99.90;;;3.14;100.00;100026.31;4986333;28;20236;-74
2022/11/28 05:30:04;;;;;;;6.95;2.40;;;3.30;99.90;;;3.17;100.00;100029.00;5001996;28;20307;-74
2022/11/28 05:32:32;;;;;;;7.13;2.50;;;3.30;99.90;;;3.14;100.00;100028.91;4995325;28;20664;-74
2022/11/28 05:34:59;;;;;;;6.20;2.25;;;3.30;99.90;;;3.11;100.00;100026.22;5013481;28;20243;-74
2022/11/28 05:37:26;;;;;;;7.32;2.40;;;3.30;99.90;;;3.15;100.00;100028.97;4990444;28;20262;-73
2022/11/28 05:39:54;;;;;;;6.80;2.40;;;3.30;99.90;;;3.14;100.00;100021.06;5003670;28;20223;-74
2022/11/28 05:42:21;;;;;;;5.13;1.95;;;3.30;99.90;;;3.11;100.00;100021.88;4979876;28;20278;-73
2022/11/28 05:44:51;;;;;;;5.88;2.20;;;3.30;99.90;;;3.09;100.00;100018.31;4999188;28;20235;-73
2022/11/28 05:47:18;;;;;;;4.97;1.90;;;3.30;99.90;;;3.16;100.00;100022.00;4995340;28;20756;-75
2022/11/28 05:49:46;;;;;;;6.72;2.40;;;3.30;99.90;;;3.15;100.00;100022.84;5004481;28;20282;-73
2022/11/28 05:52:13;;;;;;;7.00;2.40;;;3.30;99.90;;;3.20;100.00;100030.00;4997343;28;20239;-74
2022/11/28 05:54:40;;;;;;;7.43;3.20;;;3.30;99.90;;;3.20;100.00;100022.16;4995564;28;20304;-74
2022/11/28 05:57:07;;;;;;;7.85;2.67;;;3.30;99.90;;;3.17;100.00;100022.06;4991006;28;20228;-73
2022/11/28 05:59:34;;;;;;;6.68;2.20;;;3.50;99.90;;;3.12;100.00;100020.16;5004405;28;20287;-75
2022/11/28 06:02:02;;;;;;;9.88;3.22;;;3.40;99.90;;;3.12;100.00;100023.63;4994680;28;20292;-74
2022/11/28 06:04:29;;;;;;;10.55;3.45;;;3.30;99.90;;;3.09;100.00;100020.03;4996942;28;20224;-75
2022/11/28 06:06:56;;;;;;;10.07;3.42;;;3.40;99.90;;;3.07;100.00;100016.50;5008683;28;20230;-75
2022/11/28 06:09:23;;;;;;;9.00;2.97;;;3.30;99.90;;;3.09;100.00;100017.44;4991867;28;20299;-75
2022/11/28 06:11:52;;;;;;;15.52;4.82;;;3.20;99.90;;;3.11;100.00;100014.03;4996949;28;20251;-74
2022/11/28 06:14:19;;;;;;;7.00;2.45;;;3.70;99.90;;;3.11;100.00;100023.59;4995429;28;20259;-75
2022/11/28 06:16:46;;;;;;;7.85;2.67;;;3.30;99.90;;;3.10;100.00;100021.81;4984523;28;20299;-75
2022/11/28 06:19:13;;;;;;;7.10;2.72;;;3.20;99.90;;;3.11;100.00;100026.22;4978671;28;20311;-77
2022/11/28 06:21:41;;;;;;;9.00;3.03;;;3.20;99.90;;;3.13;100.00;100035.88;4996209;28;20239;-76
2022/11/28 06:24:09;;;;;;;7.13;2.53;;;3.20;99.90;;;3.02;100.00;100025.91;5000261;28;20228;-75
2022/11/28 06:26:36;;;;;;;9.70;3.13;;;3.20;99.90;;;3.07;100.00;100040.00;5005208;28;20251;-76
2022/11/28 06:29:03;;;;;;;7.72;2.67;;;3.10;99.90;;;3.07;100.00;100045.22;4994324;28;20232;-75
2022/11/28 06:31:32;;;;;;;7.50;2.70;;;3.20;99.90;;;3.05;100.00;100041.69;4996443;28;20236;-75
2022/11/28 06:33:59;;;;;;;8.20;2.83;;;3.30;99.90;;;3.04;100.00;100047.75;4999304;28;20242;-74
2022/11/28 06:36:26;;;;;;;6.53;2.33;;;3.20;99.90;;;3.06;100.00;100048.69;4983516;28;20314;-75
2022/11/28 06:38:53;;;;;;;6.28;2.25;;;3.20;99.90;;;3.07;100.00;100055.69;4996265;28;20300;-75
2022/11/28 06:41:21;;;;;;;8.25;2.88;;;3.10;99.90;;;3.08;100.00;100045.28;4994097;28;20259;-75
2022/11/28 06:43:49;;;;;;;6.53;2.30;;;3.20;99.90;;;3.11;100.00;100054.94;4995789;28;20648;-75
2022/11/28 06:46:19;;;;;;;8.20;2.92;;;3.30;99.90;;;3.13;100.00;100058.50;4982421;28;20224;-75
2022/11/28 06:48:49;;;;;;;7.88;2.65;;;3.20;99.90;;;3.13;100.00;100054.16;4991714;28;20227;-75
2022/11/28 06:51:17;;;;;;;5.53;2.00;;;3.40;99.90;;;3.16;100.00;100053.38;4994712;28;20256;-75
2022/11/28 06:53:45;;;;;;;7.32;2.65;;;3.30;99.90;;;3.20;100.00;100058.75;4997400;28;20289;-75
2022/11/28 06:56:16;;;;;;;7.40;2.75;;;3.30;99.90;;;3.20;100.00;100052.63;4995105;28;20290;-75
2022/11/28 06:58:44;;;;;;;6.22;3.08;;;3.30;99.90;;;3.21;100.00;100062.25;5001748;28;20227;-75
2022/11/28 07:01:18;;;;;;;5.80;2.25;;;3.30;99.90;;;3.19;100.00;100061.31;5001065;28;20258;-75
2022/11/28 07:03:47;;;;;;;5.40;2.00;;;3.30;99.90;;;3.18;100.00;100062.13;4995665;28;20247;-75
2022/11/28 07:06:18;;;;;;;5.68;1.95;;;3.40;99.90;;;3.17;100.00;100065.59;4994779;28;20274;-75
2022/11/28 07:08:46;;;;;;;3.72;1.42;;;3.50;99.90;;;3.20;100.00;100065.69;4999588;28;20307;-75
2022/11/28 07:11:27;;;;;;;4.47;1.60;;;3.40;99.90;;;3.17;100.00;100065.59;5003384;28;20232;-75
2022/11/28 07:13:56;;;;;;;6.88;2.38;;;3.40;99.90;;;3.21;100.00;100080.53;5010814;28;20318;-74
2022/11/28 07:16:32;;;;;;;3.65;1.45;;;3.40;99.90;;;3.23;100.00;100076.25;5005026;28;20315;-75
2022/11/28 07:19:00;;;;;;;5.55;2.10;;;3.40;99.90;;;3.21;100.00;100078.81;5011277;28;20221;-75
2022/11/28 07:21:27;;;;;;;4.85;1.73;;;3.40;99.90;;;3.25;100.00;100079.78;5002813;28;20244;-74
2022/11/28 07:23:57;;;;;;;7.35;2.72;;;3.40;99.90;;;3.26;100.00;100083.28;5004233;28;20220;-74
2022/11/28 07:26:24;;;;;;;5.93;2.05;;;3.40;99.90;;;3.27;100.00;100085.06;4989385;28;20320;-75
2022/11/28 07:28:51;;;;;;;4.63;1.65;;;3.40;99.90;;;3.33;100.00;100091.38;4991835;28;20283;-75
2022/11/28 07:31:27;;;;;;;4.72;1.80;;;3.50;99.90;;;3.35;100.00;100083.59;4990369;28;20256;-75
2022/11/28 07:33:54;;;;;;;6.00;2.25;;;3.50;99.90;;;3.38;100.00;100079.34;4997486;28;20244;-75
2022/11/28 07:36:24;;;;;;;6.50;2.38;;;3.60;99.90;;;3.36;100.00;100083.63;4993984;28;20310;-75
2022/11/28 07:38:56;;;;;;;6.05;2.22;;;3.50;99.90;;;3.36;100.00;100080.13;4973954;28;20295;-74
2022/11/28 07:41:24;;;;;;;3.10;1.23;;;3.50;99.90;;;3.39;100.00;100083.75;4989732;28;20255;-74
2022/11/28 07:44:01;;;;;;;7.22;2.42;;;3.50;99.90;;;3.42;100.00;100082.94;4995466;28;20235;-75
2022/11/28 07:46:31;;;;;;;5.30;1.92;;;3.60;99.90;;;3.42;100.00;100086.44;4983144;28;20282;-75
2022/11/28 07:48:59;;;;;;;6.28;2.25;;;3.60;99.90;;;3.47;100.00;100084.88;4998957;28;20254;-74
2022/11/28 07:51:32;;;;;;;6.95;2.55;;;3.60;99.90;;;3.49;100.00;100083.19;5007045;28;20318;-75
2022/11/28 07:54:01;;;;;;;8.20;2.83;;;3.60;99.90;;;3.53;100.00;100090.28;4997725;28;20232;-74
2022/11/28 07:56:31;;;;;;;8.45;2.95;;;3.70;99.90;;;3.58;100.00;100097.38;4991125;28;20311;-75
2022/11/28 07:59:18;;;;;;;6.50;2.35;;;3.60;99.90;;;3.62;100.00;100094.91;5005194;28;20235;-75
2022/11/28 08:01:47;;;;;;;6.13;2.05;;;3.80;99.90;;;3.65;100.00;100097.63;4994678;28;20231;-75
2022/11/28 08:04:14;;;;;;;4.97;1.88;;;3.80;99.90;;;3.67;100.00;100092.44;5009488;28;20231;-75
2022/11/28 08:06:43;;;;;;;3.88;1.58;;;3.80;99.90;;;3.69;100.00;100094.28;5010653;28;20231;-76
2022/11/28 08:09:13;;;;;;;3.83;1.50;;;3.90;99.90;;;3.72;100.00;100096.09;5007343;28;20294;-74
2022/11/28 08:11:40;;;;;;;5.95;2.13;;;4.10;99.90;;;3.74;100.00;100091.78;4995945;28;21896;-75
2022/11/28 08:14:08;;;;;;;7.75;2.78;;;3.90;99.90;;;3.76;100.00;100090.13;4998561;28;20298;-75
2022/11/28 08:16:35;;;;;;;5.35;1.90;;;3.90;99.90;;;3.80;100.00;100095.50;4992883;28;20262;-76
2022/11/28 08:19:03;;;;;;;5.35;1.98;;;4.10;99.90;;;3.82;100.00;100085.06;4992203;28;20251;-75
2022/11/28 08:21:32;;;;;;;5.70;1.98;;;4.00;99.90;;;3.82;100.00;100088.56;5009764;28;20234;-76
2022/11/28 08:24:00;;;;;;;6.78;2.50;;;3.90;99.90;;;3.82;100.00;100088.56;5015742;28;20224;-75
2022/11/28 08:26:29;;;;;;;5.68;1.98;;;4.00;99.90;;;3.84;100.00;100083.38;4973086;28;20243;-76
2022/11/28 08:28:59;;;;;;;5.35;2.03;;;4.00;99.90;;;3.85;100.00;100093.00;4997606;28;20585;-76
2022/11/28 08:31:33;;;;;;;8.48;2.80;;;4.00;99.90;;;3.90;100.00;100095.75;5003299;28;20231;-76
2022/11/28 08:34:04;;;;;;;4.43;1.63;;;4.00;99.90;;;3.91;100.00;100098.47;5005688;28;20234;-78
2022/11/28 08:36:31;;;;;;;6.13;2.22;;;4.00;99.90;;;3.92;100.00;100092.38;5012092;28;20263;-77
2022/11/28 08:39:00;;;;;;;7.78;3.28;;;4.10;99.90;;;3.96;100.00;100093.38;4993760;28;20320;-75
2022/11/28 08:41:48;;;;;;;10.75;4.30;;;4.10;99.90;;;3.98;100.00;100091.69;4980501;28;20310;-74
2022/11/28 08:44:15;;;;;;;5.72;2.08;;;4.10;99.90;;;4.00;100.00;100100.47;4998587;28;20387;-76
2022/11/28 08:46:42;;;;;;;4.90;1.80;;;4.20;99.90;;;4.01;100.00;100097.91;4998967;28;20238;-75
2022/11/28 08:49:09;;;;;;;4.93;1.83;;;4.20;99.90;;;4.06;100.00;100104.16;5003789;28;20259;-76
2022/11/28 08:51:36;;;;;;;5.78;2.15;;;4.30;99.90;;;4.09;100.00;100090.28;5000289;28;20308;-75
2022/11/28 08:54:04;;;;;;;5.28;1.85;;;4.20;99.90;;;4.08;100.00;100094.63;5003457;28;20291;-75
2022/11/28 08:56:31;;;;;;;5.72;2.10;;;4.20;99.90;;;4.11;100.00;100091.19;5018001;28;20329;-76
2022/11/28 08:58:59;;;;;;;6.53;2.45;;;4.30;99.90;;;4.15;100.00;100093.94;5006491;28;20270;-77
2022/11/28 09:01:27;;;;;;;4.65;1.80;;;4.30;99.90;;;4.18;100.00;100095.78;4979496;28;20287;-76
2022/11/28 09:03:55;;;;;;;5.93;2.15;;;4.30;99.90;;;4.17;100.00;100096.63;4998965;28;20244;-75
2022/11/28 09:06:23;;;;;;;6.30;2.30;;;4.30;99.90;;;4.20;100.00;100099.31;5004524;28;20246;-76
2022/11/28 09:08:51;;;;;;;8.45;3.05;;;4.40;99.90;;;4.24;100.00;100105.53;4987037;28;20301;-74
2022/11/28 09:11:20;;;;;;;5.78;2.17;;;4.50;99.90;;;4.31;100.00;100104.84;4996125;28;20278;-75
2022/11/28 09:13:48;;;;;;;6.20;2.15;;;4.40;99.90;;;4.32;100.00;100098.78;4995776;28;20259;-75
2022/11/28 09:16:15;;;;;;;6.05;2.22;;;4.50;99.90;;;4.27;100.00;100095.16;4984934;28;20315;-75
2022/11/28 09:18:43;;;;;;;5.57;2.17;;;4.40;99.90;;;4.29;100.00;100098.69;4998020;28;20238;-75
2022/11/28 09:21:13;;;;;;;5.03;1.90;;;4.40;99.90;;;4.34;100.00;100110.19;5006305;28;20239;-75
2022/11/28 09:23:43;;;;;;;5.72;2.05;;;4.50;99.90;;;4.36;100.00;100111.13;5008162;28;20243;-76
2022/11/28 09:26:18;;;;;;;6.30;2.33;;;4.50;99.90;;;4.36;100.00;100104.16;5003851;28;20236;-75
2022/11/28 09:28:46;;;;;;;7.03;2.50;;;4.50;99.90;;;4.43;100.00;100118.31;5003026;28;20229;-75
2022/11/28 09:31:16;;;;;;;4.80;1.85;;;4.50;99.90;;;4.41;100.00;100118.25;5009780;28;20255;-75
2022/11/28 09:33:45;;;;;;;6.40;2.38;;;4.50;99.90;;;4.43;100.00;100118.31;5002056;28;20223;-74
2022/11/28 09:36:19;;;;;;;6.28;2.33;;;4.50;99.90;;;4.49;100.00;100121.09;4998633;28;20311;-75
2022/11/28 09:38:46;;;;;;;4.95;1.95;;;4.60;99.90;;;4.52;100.00;100117.66;5003407;28;20234;-75
2022/11/28 09:41:34;;;;;;;7.40;2.38;;;4.70;99.90;;;4.55;100.00;100120.38;5012837;28;20239;-77
2022/11/28 09:44:22;;;;;;;6.43;2.42;;;4.70;99.90;;;4.58;100.00;100125.69;4998614;28;20232;-76
2022/11/28 09:46:55;;;;;;;5.55;2.33;;;4.70;99.90;;;4.58;100.00;100126.59;4992991;28;20311;-74
2022/11/28 09:49:40;;;;;;;4.15;1.73;;;4.70;99.90;;;4.55;100.00;100105.56;4974047;28;20299;-75
2022/11/28 09:52:31;;;;;;;6.85;2.50;;;4.70;99.90;;;4.62;100.00;100127.56;4985896;28;20244;-74
2022/11/28 09:55:26;;;;;;;4.38;1.70;;;4.80;99.90;;;4.63;100.00;100130.22;4982927;28;20231;-75
2022/11/28 09:57:55;;;;;;;11.85;4.28;;;4.70;99.90;;;4.68;100.00;100131.22;4988357;28;20248;-75
2022/11/28 10:00:51;;;;;;;7.65;2.83;;;4.80;99.90;;;4.67;100.00;100132.06;4977425;28;20315;-75
2022/11/28 10:03:58;;;;;;;8.68;3.20;;;4.80;99.90;;;4.72;100.00;100140.06;4977191;28;20243;-74
2022/11/28 10:06:47;;;;;;;6.75;2.50;;;4.90;99.90;;;4.86;100.00;100145.69;4974198;28;20228;-74
2022/11/28 10:09:50;;;;;;;8.60;2.95;;;4.90;99.90;;;4.95;100.00;100159.03;4977149;28;20310;-74
2022/11/28 10:12:20;;;;;;;6.85;2.50;;;5.00;99.90;;;4.95;100.00;100151.16;4990383;28;20290;-75
2022/11/28 10:15:11;;;;;;;8.25;3.42;;;5.10;99.90;;;5.02;100.00;100154.00;5001123;28;20236;-74
2022/11/28 10:17:47;;;;;;;8.68;3.13;;;5.10;99.90;;;5.02;100.00;100151.38;4993354;28;20231;-74
2022/11/28 10:20:41;;;;;;;3.97;1.60;;;5.10;99.90;;;5.12;100.00;100156.00;5004526;28;20302;-74
2022/11/28 10:23:19;;;;;;;6.00;2.35;;;5.20;99.90;;;5.10;100.00;100149.84;4984835;28;20670;-75
2022/11/28 10:25:56;;;;;;;5.93;2.10;;;5.30;99.90;;;5.14;100.00;100156.06;4991906;28;20247;-75
2022/11/28 10:28:37;;;;;;;3.92;1.60;;;5.20;99.90;;;5.18;100.00;100152.66;4977565;28;20246;-75
2022/11/28 10:31:18;;;;;;;4.65;1.70;;;5.30;99.90;;;5.16;100.00;100143.88;4985664;28;20239;-75
2022/11/28 10:33:56;;;;;;;4.65;1.70;;;5.30;99.90;;;5.19;100.00;100158.78;4989532;28;20235;-75
2022/11/28 10:36:31;;;;;;;4.35;1.73;;;5.40;99.90;;;5.31;100.00;100159.13;4984654;28;20258;-75
2022/11/28 10:39:08;;;;;;;4.90;1.80;;;5.40;99.90;;;5.29;100.00;100152.97;4987919;28;20219;-76
2022/11/28 10:42:10;;;;;;;4.97;1.80;;;5.40;99.90;;;5.30;100.00;100154.75;4991364;28;20231;-76
2022/11/28 10:45:02;;;;;;;10.23;3.67;;;5.40;99.90;;;5.25;100.00;100154.63;5003775;28;20239;-75
2022/11/28 10:47:57;;;;;;;6.65;2.78;;;5.40;99.90;;;5.32;100.00;100159.19;4988780;28;20230;-76
2022/11/28 10:51:10;;;;;;;3.35;1.20;;;5.40;99.90;;;5.26;100.00;100156.41;4997624;28;20258;-76